createdAt,value
2019-02-02T00:01:20.209Z,104.67
2019-02-02T00:03:48.357Z,110.87
2019-02-02T00:06:17.616Z,122.10
2019-02-02T00:08:45.938Z,109.17
2019-02-02T00:11:14.090Z,105.83
2019-02-02T00:13:42.320Z,94.47
2019-02-02T00:16:10.411Z,98.10
2019-02-02T00:18:38.496Z,98.73
2019-02-02T00:21:06.692Z,94.33
2019-02-02T00:23:34.850Z,95.57
2019-02-02T00:26:03.396Z,100.27
2019-02-02T00:28:31.529Z,101.17
2019-02-02T00:30:59.683Z,104.90
2019-02-02T00:33:27.798Z,108.43
2019-02-02T00:35:56.045Z,101.70
2019-02-02T00:38:24.121Z,113.47
2019-02-02T00:40:52.393Z,106.20
2019-02-02T00:43:21.185Z,110.30
2019-02-02T00:45:50.801Z,100.80
2019-02-02T00:48:18.934Z,108.10
2019-02-02T00:50:47.231Z,111.00
2019-02-02T00:53:15.611Z,112.50
2019-02-02T00:55:43.761Z,111.10
2019-02-02T00:58:11.959Z,114.93
2019-02-02T01:00:41.634Z,111.70
2019-02-02T01:03:09.917Z,115.23
2019-02-02T01:05:38.165Z,114.47
2019-02-02T01:08:06.501Z,113.03
2019-02-02T01:10:35.414Z,116.13
2019-02-02T01:13:05.540Z,114.47
2019-02-02T01:15:33.900Z,113.17
2019-02-02T01:18:03.996Z,110.97
2019-02-02T01:20:32.234Z,114.13
2019-02-02T01:23:02.470Z,107.23
2019-02-02T01:25:30.825Z,115.10
2019-02-02T01:28:05.313Z,113.93
2019-02-02T01:30:29.175Z,114.33
2019-02-02T01:32:57.231Z,116.43
2019-02-02T01:35:25.472Z,115.27
2019-02-02T01:37:53.662Z,112.47
2019-02-02T01:40:22.624Z,119.40
2019-02-02T01:42:50.818Z,112.60
2019-02-02T01:45:22.519Z,115.03
2019-02-02T01:47:50.880Z,113.70
2019-02-02T01:50:22.475Z,116.47
2019-02-02T01:52:53.048Z,117.90
2019-02-02T01:55:21.263Z,113.43
2019-02-02T01:57:49.663Z,114.93
2019-02-02T02:00:28.283Z,113.17
2019-02-02T02:02:56.600Z,116.33
2019-02-02T02:05:25.064Z,123.20
2019-02-02T02:07:53.236Z,112.03
2019-02-02T02:10:21.689Z,121.17
2019-02-02T02:12:50.014Z,112.83
2019-02-02T02:15:18.698Z,116.40
2019-02-02T02:17:47.130Z,124.13
2019-02-02T02:20:16.055Z,113.53
2019-02-02T02:22:45.221Z,116.00
2019-02-02T02:25:16.306Z,114.27
2019-02-02T02:27:44.816Z,115.23
2019-02-02T02:30:18.612Z,125.23
2019-02-02T02:32:46.942Z,114.73
2019-02-02T02:35:16.325Z,115.83
2019-02-02T02:37:45.515Z,111.97
2019-02-02T02:40:18.112Z,120.03
2019-02-02T02:42:47.633Z,116.20
2019-02-02T02:45:16.021Z,121.20
2019-02-02T02:47:44.283Z,116.23
2019-02-02T02:50:15.006Z,119.10
2019-02-02T02:52:43.248Z,127.57
2019-02-02T02:55:12.352Z,112.83
2019-02-02T02:57:40.548Z,110.47
2019-02-02T03:00:19.120Z,117.37
2019-02-02T03:02:47.280Z,118.83
2019-02-02T03:05:16.545Z,124.60
2019-02-02T03:07:45.276Z,117.50
2019-02-02T03:10:16.481Z,117.73
2019-02-02T03:12:44.802Z,121.70
2019-02-02T03:15:14.961Z,117.33
2019-02-02T03:17:43.584Z,129.77
2019-02-02T03:20:13.258Z,125.37
2019-02-02T03:22:41.482Z,118.53
2019-02-02T03:25:13.599Z,117.30
2019-02-02T03:27:41.927Z,116.30
2019-02-02T03:30:13.681Z,118.53
2019-02-02T03:32:42.118Z,120.20
2019-02-02T03:35:11.524Z,115.83
2019-02-02T03:37:39.602Z,118.83
2019-02-02T03:40:12.457Z,121.67
2019-02-02T03:42:40.738Z,124.47
2019-02-02T03:45:10.036Z,123.60
2019-02-02T03:47:38.523Z,113.10
2019-02-02T03:50:08.003Z,124.83
2019-02-02T03:52:36.214Z,120.90
2019-02-02T03:55:05.309Z,115.37
2019-02-02T03:57:36.097Z,116.40
2019-02-02T04:00:06.767Z,121.47
2019-02-02T04:02:34.973Z,121.77
2019-02-02T04:05:05.810Z,115.90
2019-02-02T04:07:34.147Z,120.63
2019-02-02T04:10:02.430Z,124.20
2019-02-02T04:12:30.568Z,121.97
2019-02-02T04:14:58.666Z,122.67
2019-02-02T04:17:26.692Z,117.77
2019-02-02T04:19:54.792Z,126.10
2019-02-02T04:22:22.978Z,114.27
2019-02-02T04:24:51.062Z,125.83
2019-02-02T04:27:19.203Z,121.73
2019-02-02T04:29:47.318Z,120.03
2019-02-02T04:32:15.677Z,124.20
2019-02-02T04:34:43.951Z,121.87
2019-02-02T04:37:12.168Z,121.17
2019-02-02T04:39:40.442Z,115.87
2019-02-02T04:42:11.332Z,123.87
2019-02-02T04:44:39.504Z,123.43
2019-02-02T04:47:07.634Z,117.23
2019-02-02T04:49:35.956Z,124.80
2019-02-02T04:52:04.283Z,126.50
2019-02-02T04:54:34.244Z,126.37
2019-02-02T04:57:02.534Z,126.77
2019-02-02T04:59:32.978Z,119.07
2019-02-02T05:02:01.585Z,121.03
2019-02-02T05:04:30.204Z,128.03
2019-02-02T05:06:58.350Z,118.37
2019-02-02T05:09:26.516Z,124.13
2019-02-02T05:11:54.848Z,125.43
2019-02-02T05:14:23.023Z,121.97
2019-02-02T05:16:51.177Z,125.93
2019-02-02T05:19:19.254Z,120.80
2019-02-02T05:21:47.469Z,130.90
2019-02-02T05:24:15.518Z,130.60
2019-02-02T05:26:43.621Z,136.13
2019-02-02T05:29:11.790Z,122.03
2019-02-02T05:31:40.098Z,117.60
2019-02-02T05:34:08.369Z,132.70
2019-02-02T05:36:36.526Z,125.47
2019-02-02T05:39:08.118Z,131.50
2019-02-02T05:41:36.675Z,125.13
2019-02-02T05:44:05.323Z,128.43
2019-02-02T05:46:33.488Z,120.37
2019-02-02T05:49:02.084Z,124.90
2019-02-02T05:51:30.342Z,128.70
2019-02-02T05:53:58.596Z,133.20
2019-02-02T05:56:26.779Z,132.00
2019-02-02T05:58:55.092Z,133.57
2019-02-02T06:01:23.947Z,126.93
2019-02-02T06:03:52.123Z,129.23
2019-02-02T06:06:21.424Z,128.57
2019-02-02T06:08:49.737Z,132.23
2019-02-02T06:11:17.794Z,143.13
2019-02-02T06:13:46.572Z,136.77
2019-02-02T06:16:14.842Z,132.53
2019-02-02T06:18:42.902Z,138.37
2019-02-02T06:21:12.363Z,145.37
2019-02-02T06:23:40.406Z,134.47
2019-02-02T06:26:08.513Z,139.10
2019-02-02T06:28:36.515Z,131.70
2019-02-02T06:31:05.020Z,131.43
2019-02-02T06:33:33.083Z,129.03
2019-02-02T06:36:03.536Z,142.40
2019-02-02T06:38:31.138Z,138.47
2019-02-02T06:40:59.391Z,142.47
2019-02-02T06:43:30.277Z,132.63
2019-02-02T06:45:58.050Z,135.77
2019-02-02T06:48:26.273Z,136.47
2019-02-02T06:50:56.322Z,138.83
2019-02-02T06:53:25.748Z,144.93
2019-02-02T06:55:54.474Z,136.73
2019-02-02T06:58:22.943Z,143.53
2019-02-02T07:00:50.992Z,135.93
2019-02-02T07:03:20.527Z,142.43
2019-02-02T07:05:48.646Z,147.17
2019-02-02T07:08:18.887Z,147.60
2019-02-02T07:10:47.178Z,144.50
2019-02-02T07:13:15.254Z,146.13
2019-02-02T07:15:43.379Z,144.30
2019-02-02T07:18:11.448Z,149.70
2019-02-02T07:20:39.583Z,150.93
2019-02-02T07:23:07.750Z,143.30
2019-02-02T07:25:36.081Z,150.10
2019-02-02T07:28:04.310Z,143.27
2019-02-02T07:30:32.499Z,139.83
2019-02-02T07:33:00.719Z,138.20
2019-02-02T07:35:29.132Z,149.73
2019-02-02T07:37:57.398Z,151.03
2019-02-02T07:40:26.586Z,142.57
2019-02-02T07:42:54.665Z,139.90
2019-02-02T07:45:26.122Z,151.83
2019-02-02T07:47:54.545Z,150.43
2019-02-02T07:50:22.793Z,139.50
2019-02-02T07:52:50.909Z,155.60
2019-02-02T07:55:19.477Z,150.70
2019-02-02T07:57:47.777Z,141.83
2019-02-02T08:00:41.753Z,142.93
2019-02-02T08:03:11.771Z,145.97
2019-02-02T08:05:39.921Z,141.33
2019-02-02T08:08:09.245Z,150.27
2019-02-02T08:10:37.318Z,142.03
2019-02-02T08:13:07.183Z,148.13
2019-02-02T08:15:35.720Z,149.87
2019-02-02T08:18:07.732Z,142.33
2019-02-02T08:20:35.791Z,142.30
2019-02-02T08:23:04.694Z,155.07
2019-02-02T08:25:32.898Z,152.77
2019-02-02T08:28:01.011Z,142.50
2019-02-02T08:30:31.758Z,147.00
2019-02-02T08:32:59.942Z,153.30
2019-02-02T08:35:28.156Z,155.43
2019-02-02T08:37:56.276Z,146.37
2019-02-02T08:40:24.523Z,152.77
2019-02-02T08:42:52.574Z,145.07
2019-02-02T08:45:20.615Z,155.93
2019-02-02T08:47:48.733Z,155.67
2019-02-02T08:50:32.047Z,148.17
2019-02-02T08:53:00.300Z,159.37
2019-02-02T08:55:28.838Z,156.23
2019-02-02T08:57:59.181Z,153.90
2019-02-02T09:00:27.843Z,157.07
2019-02-02T09:02:56.069Z,148.97
2019-02-02T09:05:24.666Z,153.03
2019-02-02T09:07:52.983Z,156.93
2019-02-02T09:10:23.751Z,151.60
2019-02-02T09:12:51.955Z,162.57
2019-02-02T09:15:20.246Z,150.47
2019-02-02T09:17:48.533Z,151.63
2019-02-02T09:20:16.757Z,157.73
2019-02-02T09:22:45.791Z,154.27
2019-02-02T09:25:15.155Z,154.00
2019-02-02T09:27:43.234Z,157.70
2019-02-02T09:30:17.955Z,153.23
2019-02-02T09:32:46.092Z,152.57
2019-02-02T09:35:14.497Z,156.33
2019-02-02T09:37:42.629Z,152.70
2019-02-02T09:40:13.104Z,144.63
2019-02-02T09:42:43.366Z,153.20
2019-02-02T09:45:13.562Z,149.50
2019-02-02T09:47:42.046Z,157.00
2019-02-02T09:50:13.503Z,152.10
2019-02-02T09:52:43.144Z,160.47
2019-02-02T09:55:13.967Z,161.37
2019-02-02T09:57:43.235Z,150.80
2019-02-02T10:00:16.241Z,157.07
2019-02-02T10:02:46.053Z,153.67
2019-02-02T10:05:14.578Z,152.53
2019-02-02T10:07:42.843Z,145.40
2019-02-02T10:10:15.391Z,151.23
2019-02-02T10:12:43.576Z,148.43
2019-02-02T10:15:12.137Z,148.63
2019-02-02T10:17:40.280Z,155.23
2019-02-02T10:20:11.579Z,155.10
2019-02-02T10:22:39.743Z,150.83
2019-02-02T10:25:09.970Z,165.07
2019-02-02T10:27:38.125Z,149.97
2019-02-02T10:30:13.798Z,161.87
2019-02-02T10:32:41.896Z,153.77
2019-02-02T10:35:10.345Z,153.27
2019-02-02T10:37:39.681Z,164.80
2019-02-02T10:40:09.398Z,166.17
2019-02-02T10:42:37.472Z,164.03
2019-02-02T10:45:09.585Z,160.00
2019-02-02T10:47:37.648Z,155.37
2019-02-02T10:50:08.353Z,164.43
2019-02-02T10:52:36.468Z,159.57
2019-02-02T10:55:05.538Z,163.83
2019-02-02T10:57:33.627Z,165.57
2019-02-02T11:00:02.094Z,156.50
2019-02-02T11:02:31.374Z,159.40
2019-02-02T11:04:59.567Z,159.90
2019-02-02T11:07:27.815Z,163.97
2019-02-02T11:09:55.997Z,161.47
2019-02-02T11:12:24.418Z,165.50
2019-02-02T11:14:52.738Z,160.53
2019-02-02T11:17:20.969Z,163.83
2019-02-02T11:19:49.145Z,156.33
2019-02-02T11:22:17.737Z,164.87
2019-02-02T11:24:45.902Z,155.60
2019-02-02T11:27:14.283Z,158.00
2019-02-02T11:29:42.458Z,152.13
2019-02-02T11:32:10.715Z,157.30
2019-02-02T11:34:38.856Z,158.40
2019-02-02T11:37:07.052Z,159.53
2019-02-02T11:39:36.125Z,158.07
2019-02-02T11:42:04.755Z,152.37
2019-02-02T11:44:32.976Z,164.87
2019-02-02T11:47:02.229Z,154.20
2019-02-02T11:49:30.444Z,154.23
2019-02-02T11:51:58.732Z,165.10
2019-02-02T11:54:26.962Z,151.77
2019-02-02T11:56:55.065Z,157.03
2019-02-02T11:59:23.356Z,149.93
2019-02-02T12:01:51.458Z,149.07
2019-02-02T12:04:21.959Z,155.67
2019-02-02T12:06:50.287Z,157.93
2019-02-02T12:09:18.362Z,155.30
2019-02-02T12:11:46.483Z,158.93
2019-02-02T12:14:14.589Z,149.33
2019-02-02T12:16:43.772Z,152.90
2019-02-02T12:19:12.292Z,150.87
2019-02-02T12:21:40.479Z,159.30
2019-02-02T12:24:15.907Z,160.37
2019-02-02T12:26:38.813Z,150.70
2019-02-02T12:29:08.002Z,168.33
2019-02-02T12:31:36.198Z,152.77
2019-02-02T12:34:04.597Z,156.97
2019-02-02T12:36:32.784Z,164.57
2019-02-02T12:39:02.111Z,153.00
2019-02-02T12:41:30.636Z,160.23
2019-02-02T12:43:59.086Z,159.18
2019-02-02T12:46:27.295Z,154.57
2019-02-02T12:48:55.628Z,155.77
2019-02-02T12:51:23.962Z,158.63
2019-02-02T12:53:55.611Z,154.60
2019-02-02T12:56:22.687Z,149.37
2019-02-02T12:58:50.888Z,140.67
2019-02-02T13:01:19.009Z,149.43
2019-02-02T13:03:47.174Z,148.80
2019-02-02T13:06:15.336Z,152.03
2019-02-02T13:08:46.117Z,151.33
2019-02-02T13:11:15.904Z,149.63
2019-02-02T13:13:43.995Z,151.23
2019-02-02T13:16:12.350Z,156.97
2019-02-02T13:18:40.643Z,146.53
2019-02-02T13:21:09.178Z,150.53
2019-02-02T13:23:37.467Z,158.73
2019-02-02T13:26:06.787Z,146.77
2019-02-02T13:28:34.940Z,148.73
2019-02-02T13:31:03.193Z,156.77
2019-02-02T13:33:31.367Z,153.30
2019-02-02T13:35:59.622Z,152.37
2019-02-02T13:38:27.696Z,154.07
2019-02-02T13:40:55.747Z,153.00
2019-02-02T13:43:23.987Z,155.23
2019-02-02T13:45:52.062Z,155.47
2019-02-02T13:48:20.285Z,149.20
2019-02-02T13:50:48.696Z,164.60
2019-02-02T13:53:16.946Z,156.07
2019-02-02T13:55:46.348Z,160.47
2019-02-02T13:58:14.774Z,159.77
2019-02-02T14:00:42.932Z,151.97
2019-02-02T14:03:11.112Z,155.60
2019-02-02T14:05:40.764Z,157.87
2019-02-02T14:08:09.138Z,149.83
2019-02-02T14:10:37.477Z,154.97
2019-02-02T14:13:05.808Z,152.17
2019-02-02T14:15:33.933Z,146.73
2019-02-02T14:18:02.128Z,151.57
2019-02-02T14:20:30.228Z,151.17
2019-02-02T14:22:58.329Z,154.87
2019-02-02T14:25:26.485Z,148.53
2019-02-02T14:27:54.873Z,150.37
2019-02-02T14:30:24.906Z,161.20
2019-02-02T14:32:54.799Z,150.70
2019-02-02T14:35:26.352Z,155.93
2019-02-02T14:37:54.730Z,152.27
2019-02-02T14:40:23.174Z,150.27
2019-02-02T14:42:51.946Z,146.50
2019-02-02T14:45:22.016Z,154.70
2019-02-02T14:47:50.820Z,148.03
2019-02-02T14:50:23.441Z,152.40
2019-02-02T14:52:52.572Z,142.30
2019-02-02T14:55:26.552Z,140.60
2019-02-02T14:57:55.172Z,145.27
2019-02-02T15:00:26.287Z,145.57
2019-02-02T15:02:54.404Z,143.00
2019-02-02T15:05:22.695Z,143.53
2019-02-02T15:07:52.668Z,147.53
2019-02-02T15:10:22.145Z,142.23
2019-02-02T15:12:50.830Z,148.27
2019-02-02T15:15:19.228Z,148.50
2019-02-02T15:17:47.985Z,143.37
2019-02-02T15:20:22.325Z,150.27
2019-02-02T15:22:51.110Z,152.90
2019-02-02T15:25:19.329Z,148.37
2019-02-02T15:27:48.489Z,147.03
2019-02-02T15:30:18.386Z,150.97
2019-02-02T15:32:46.793Z,147.03
2019-02-02T15:35:14.948Z,155.23
2019-02-02T15:37:43.278Z,146.33
2019-02-02T15:40:14.160Z,153.63
2019-02-02T15:42:42.333Z,153.83
2019-02-02T15:45:15.335Z,152.20
2019-02-02T15:47:45.060Z,159.77
2019-02-02T15:50:17.370Z,149.30
2019-02-02T15:52:45.722Z,152.10
2019-02-02T15:55:16.660Z,159.73
2019-02-02T15:57:47.231Z,153.13
2019-02-02T16:00:22.230Z,151.87
2019-02-02T16:02:50.546Z,151.90
2019-02-02T16:05:19.044Z,156.77
2019-02-02T16:07:47.221Z,154.07
2019-02-02T16:10:18.734Z,148.70
2019-02-02T16:12:47.350Z,149.13
2019-02-02T16:15:15.848Z,155.53
2019-02-02T16:17:44.138Z,148.53
2019-02-02T16:20:17.264Z,156.40
2019-02-02T16:22:47.916Z,152.53
2019-02-02T16:25:17.585Z,158.50
2019-02-02T16:27:45.799Z,158.10
2019-02-02T16:30:21.064Z,154.83
2019-02-02T16:32:51.207Z,148.87
2019-02-02T16:35:23.675Z,148.50
2019-02-02T16:37:52.596Z,151.33
2019-02-02T16:40:23.351Z,156.23
2019-02-02T16:42:53.525Z,159.63
2019-02-02T16:45:24.453Z,154.97
2019-02-02T16:47:54.279Z,156.20
2019-02-02T16:50:23.781Z,162.87
2019-02-02T16:52:52.503Z,154.73
2019-02-02T16:55:20.650Z,167.67
2019-02-02T16:57:48.854Z,155.00
2019-02-02T17:00:29.345Z,162.57
2019-02-02T17:02:57.516Z,159.03
2019-02-02T17:05:25.742Z,155.67
2019-02-02T17:07:53.864Z,153.87
2019-02-02T17:10:30.923Z,159.37
2019-02-02T17:12:59.047Z,156.17
2019-02-02T17:15:27.341Z,170.40
2019-02-02T17:17:55.917Z,161.70
2019-02-02T17:20:32.859Z,152.40
2019-02-02T17:23:00.922Z,163.37
2019-02-02T17:25:29.246Z,156.00
2019-02-02T17:27:57.370Z,162.90
2019-02-02T17:30:25.660Z,168.50
2019-02-02T17:32:55.964Z,169.93
2019-02-02T17:35:24.579Z,157.33
2019-02-02T17:37:53.478Z,168.37
2019-02-02T17:40:26.624Z,170.27
2019-02-02T17:42:55.113Z,169.57
2019-02-02T17:45:23.608Z,169.93
2019-02-02T17:47:53.475Z,167.00
2019-02-02T17:50:23.906Z,181.87
2019-02-02T17:52:52.270Z,192.97
2019-02-02T17:55:20.978Z,180.53
2019-02-02T17:57:49.237Z,172.07
2019-02-02T18:00:36.810Z,167.67
2019-02-02T18:03:05.321Z,175.73
2019-02-02T18:05:33.471Z,169.80
2019-02-02T18:08:01.615Z,186.10
2019-02-02T18:10:29.831Z,167.80
2019-02-02T18:12:57.886Z,178.90
2019-02-02T18:15:26.035Z,168.43
2019-02-02T18:17:54.100Z,171.67
2019-02-02T18:20:22.250Z,166.93
2019-02-02T18:22:51.326Z,173.73
2019-02-02T18:25:19.547Z,166.07
2019-02-02T18:27:48.158Z,162.10
2019-02-02T18:30:18.750Z,170.00
2019-02-02T18:32:46.948Z,163.70
2019-02-02T18:35:15.989Z,165.93
2019-02-02T18:37:44.333Z,157.80
2019-02-02T18:40:14.644Z,154.47
2019-02-02T18:42:43.056Z,161.90
2019-02-02T18:45:15.213Z,159.10
2019-02-02T18:47:43.307Z,164.73
2019-02-02T18:50:14.180Z,164.70
2019-02-02T18:52:42.807Z,165.47
2019-02-02T18:55:25.830Z,157.70
2019-02-02T18:57:54.008Z,161.13
2019-02-02T19:00:23.171Z,158.87
2019-02-02T19:02:51.628Z,157.33
2019-02-02T19:05:19.878Z,158.13
2019-02-02T19:07:48.031Z,152.67
2019-02-02T19:10:22.496Z,161.00
2019-02-02T19:12:51.704Z,157.67
2019-02-02T19:15:19.937Z,157.53
2019-02-02T19:17:48.001Z,151.30
2019-02-02T19:20:18.116Z,156.40
2019-02-02T19:22:46.281Z,151.73
2019-02-02T19:25:14.511Z,150.10
2019-02-02T19:27:42.684Z,160.60
2019-02-02T19:30:28.711Z,152.97
2019-02-02T19:32:56.911Z,155.17
2019-02-02T19:35:25.267Z,154.70
2019-02-02T19:37:53.407Z,148.73
2019-02-02T19:40:21.508Z,158.73
2019-02-02T19:42:49.607Z,146.60
2019-02-02T19:45:20.343Z,154.83
2019-02-02T19:47:48.449Z,155.23
2019-02-02T19:50:23.454Z,146.83
2019-02-02T19:52:51.766Z,144.13
2019-02-02T19:55:20.611Z,142.17
2019-02-02T19:57:48.666Z,147.80
2019-02-02T20:00:23.016Z,147.63
2019-02-02T20:02:51.231Z,139.37
2019-02-02T20:05:28.197Z,157.47
2019-02-02T20:07:49.277Z,155.40
2019-02-02T20:10:17.781Z,147.97
2019-02-02T20:12:46.283Z,143.27
2019-02-02T20:15:16.835Z,144.47
2019-02-02T20:17:45.819Z,149.27
2019-02-02T20:20:17.949Z,139.53
2019-02-02T20:22:46.320Z,143.30
2019-02-02T20:25:14.616Z,148.47
2019-02-02T20:27:42.769Z,139.77
2019-02-02T20:30:20.251Z,146.87
2019-02-02T20:32:48.451Z,143.70
2019-02-02T20:35:16.640Z,145.57
2019-02-02T20:37:44.876Z,147.87
2019-02-02T20:40:18.536Z,148.60
2019-02-02T20:42:47.124Z,153.30
2019-02-02T20:45:18.540Z,151.20
2019-02-02T20:47:46.592Z,143.93
2019-02-02T20:50:16.834Z,145.73
2019-02-02T20:52:47.539Z,146.77
2019-02-02T20:55:20.024Z,136.60
2019-02-02T20:57:48.436Z,134.67
2019-02-02T21:00:19.974Z,150.50
2019-02-02T21:02:51.531Z,136.47
2019-02-02T21:05:19.720Z,144.60
2019-02-02T21:07:50.032Z,142.70
2019-02-02T21:10:22.403Z,140.83
2019-02-02T21:12:50.447Z,139.67
2019-02-02T21:15:18.824Z,139.13
2019-02-02T21:17:47.303Z,144.93
2019-02-02T21:20:18.253Z,139.37
2019-02-02T21:22:46.484Z,131.43
2019-02-02T21:25:15.512Z,141.30
2019-02-02T21:27:44.033Z,138.50
2019-02-02T21:30:27.083Z,138.83
2019-02-02T21:32:55.383Z,149.93
2019-02-02T21:35:23.802Z,141.40
2019-02-02T21:37:52.074Z,133.70
2019-02-02T21:40:23.177Z,146.93
2019-02-02T21:42:51.251Z,142.00
2019-02-02T21:45:19.430Z,139.23
2019-02-02T21:47:47.515Z,135.20
2019-02-02T21:50:18.886Z,138.57
2019-02-02T21:52:47.036Z,139.00
2019-02-02T21:55:18.134Z,142.07
2019-02-02T21:57:46.766Z,136.00
2019-02-02T22:00:25.034Z,133.23
2019-02-02T22:02:53.238Z,134.80
2019-02-02T22:05:21.496Z,139.27
2019-02-02T22:07:49.681Z,137.77
2019-02-02T22:10:18.057Z,136.83
2019-02-02T22:12:46.202Z,136.07
2019-02-02T22:15:17.918Z,135.47
2019-02-02T22:17:46.538Z,124.73
2019-02-02T22:20:15.202Z,130.63
2019-02-02T22:22:43.346Z,127.60
2019-02-02T22:25:17.591Z,124.83
2019-02-02T22:27:46.066Z,122.00
2019-02-02T22:30:20.328Z,129.17
2019-02-02T22:32:48.507Z,123.60
2019-02-02T22:35:16.552Z,127.60
2019-02-02T22:37:44.711Z,113.77
2019-02-02T22:40:18.521Z,124.07
2019-02-02T22:42:47.777Z,121.03
2019-02-02T22:45:17.716Z,122.30
2019-02-02T22:47:45.840Z,128.43
2019-02-02T22:50:17.074Z,117.67
2019-02-02T22:52:45.694Z,121.87
2019-02-02T22:55:14.453Z,115.30
2019-02-02T22:57:42.663Z,120.83
2019-02-02T23:00:55.651Z,118.83
2019-02-02T23:04:07.174Z,120.50
2019-02-02T23:06:52.520Z,115.33
2019-02-02T23:10:42.480Z,117.70
2019-02-02T23:14:20.973Z,121.30
2019-02-02T23:16:49.290Z,119.37
2019-02-02T23:19:17.427Z,120.50
2019-02-02T23:21:45.656Z,117.70
2019-02-02T23:24:13.772Z,116.13
2019-02-02T23:26:41.815Z,115.90
2019-02-02T23:29:09.925Z,115.60
2019-02-02T23:31:40.751Z,119.97
2019-02-02T23:34:09.039Z,120.23
2019-02-02T23:36:37.229Z,124.20
2019-02-02T23:39:08.234Z,117.60
2019-02-02T23:41:36.833Z,119.03
2019-02-02T23:44:05.071Z,117.77
2019-02-02T23:46:33.379Z,114.77
2019-02-02T23:49:01.577Z,124.60
2019-02-02T23:51:29.805Z,124.87
2019-02-02T23:53:57.906Z,135.37
2019-02-02T23:56:26.334Z,132.07
2019-02-02T23:58:54.376Z,137.80
